Fayetteville, Georgia
Current Conditions -  °F | °C
As of 7:06 AM on Sunday 21 Dec 2014 (Local Time) from KFFC Reporting Station
Haze Haze  
Wind Chill: 47°   Ceiling: 500
Heat Index: 47°   Visibility: 2.5mi
Dew Point: 45°   Wind: 3mph
Humidity: 93%   Direction: 60°ENE
Pressure: 30.19"   Gusts: NA
Location:  33.45°N, 84.45°W
Report Text: KFFC 211206Z AUTO 06003KT 2 1/2SM BR OVC005 08/07 A3019 RMK AO2 T00830072
Loading
Personal Weather Stations






























Interactive Weather Map New forecast layout! Learn more

10-Day Weather Forecast

Advertisements
Track Severe Weather on mobile